Time;durP1;ratioP1;P1;durP2;ratioP2;P2;SDS_P1;SDS_P2;PMS_P1;PMS_P2;Temp;Humidity;BMP_temperature;BMP_pressure;BME280_temperature;BME280_humidity;BME280_pressure;Samples;Min_cycle;Max_cycle;Signal;HPM_P1;HPM_P2
2023/09/02 00:01:23;;;;;;;;;;;;;;;-144.99;100.00;52356.38;5035061;28;20344;-71
2023/09/02 00:03:50;;;;;;;;;;;;;;;-144.99;100.00;52370.63;5034743;28;20377;-64
2023/09/02 00:06:16;;;;;;;;;;;;;;;-144.99;100.00;52382.88;5030794;28;20432;-67
2023/09/02 00:08:43;;;;;;;;;;;;;;;-144.99;100.00;52340.06;5032566;28;19978;-68
2023/09/02 00:11:09;;;;;;;;;;;;;;;-144.99;100.00;52382.88;5029285;28;20035;-69
2023/09/02 00:13:38;;;;;;;;;;;;;;;-144.99;100.00;52358.41;5038722;28;20331;-69
2023/09/02 00:16:05;;;;;;;;;;;;;;;-144.99;100.00;52374.72;5032166;28;19937;-68
2023/09/02 00:18:31;;;;;;;;;;;;;;;-144.99;100.00;52407.31;5035936;28;19945;-69
2023/09/02 00:20:58;;;;;;;;;;;;;;;-144.99;100.00;52358.41;5027380;28;19969;-67
2023/09/02 00:23:24;;;;;;;;;;;;;;;-144.99;100.00;52378.78;5036322;28;19973;-67
2023/09/02 00:25:50;;;;;;;;;;;;;;;-144.99;100.00;52340.06;5036479;28;19992;-68
2023/09/02 00:28:17;;;;;;;;;;;;;;;-144.99;100.00;52342.09;5043327;28;20047;-70
2023/09/02 00:30:45;;;;;;;;;;;;;;;-144.99;100.00;52399.19;5036269;28;19939;-69
2023/09/02 00:33:11;;;;;;;;;;;;;;;-144.99;100.00;52407.31;5029955;28;20017;-70
2023/09/02 00:35:38;;;;;;;;;;;;;;;-144.99;100.00;52358.41;5025319;28;19948;-69
2023/09/02 00:38:04;;;;;;;;;;;;;;;-144.99;100.00;52395.09;5036695;28;19948;-68
2023/09/02 00:40:31;;;;;;;;;;;;;;;-144.99;100.00;52399.19;5032375;28;19946;-68
2023/09/02 00:42:59;;;;;;;;;;;;;;;-144.99;100.00;52358.41;5026019;28;20439;-68
2023/09/02 00:45:25;;;;;;;;;;;;;;;-144.99;100.00;52342.09;5032108;28;19996;-62
2023/09/02 00:47:53;;;;;;;;;;;;;;;-144.99;100.00;52372.69;5040136;28;20375;-62
2023/09/02 00:50:20;;;;;;;;;;;;;;;-144.99;100.00;52382.88;5033452;28;19943;-63
2023/09/02 00:52:46;;;;;;;;;;;;;;;-144.99;100.00;52364.53;5032247;28;20007;-62
2023/09/02 00:55:13;;;;;;;;;;;;;;;-144.99;100.00;52393.06;5030091;28;19939;-62
2023/09/02 00:57:40;;;;;;;;;;;;;;;-144.99;100.00;52372.69;5036344;28;20384;-62
2023/09/02 01:00:07;;;;;;;;;;;;;;;-144.99;100.00;52370.63;5034055;28;19950;-63
2023/09/02 01:02:34;;;;;;;;;;;;;;;-144.99;100.00;52360.44;5032599;28;20043;-61
2023/09/02 01:05:03;;;;;;;;;;;;;;;-144.99;100.00;52407.31;5027777;28;20039;-61
2023/09/02 01:07:30;;;;;;;;;;;;;;;-144.99;100.00;52362.50;5030474;28;20008;-61
2023/09/02 01:09:57;;;;;;;;;;;;;;;-144.99;100.00;52386.94;5036409;28;19950;-61
2023/09/02 01:12:23;;;;;;;;;;;;;;;-144.99;100.00;52340.06;5032492;28;20502;-60
2023/09/02 01:14:50;;;;;;;;;;;;;;;-144.99;100.00;52391.03;5030681;28;19990;-60
2023/09/02 01:17:16;;;;;;;;;;;;;;;-144.99;100.00;52374.72;5032913;28;19939;-61
2023/09/02 01:19:44;;;;;;;;;;;;;;;-144.99;100.00;52348.22;5028497;28;19943;-62
2023/09/02 01:22:26;;;;;;;;;;;;;;;-144.99;100.00;52391.03;5035382;28;20043;-62
2023/09/02 01:25:06;;;;;;;;;;;;;;;-144.99;100.00;52366.56;5030218;28;19972;-62
2023/09/02 01:27:35;;;;;;;;;;;;;;;-144.99;100.00;52399.19;5025925;28;20021;-62
2023/09/02 01:30:05;;;;;;;;;;;;;;;-144.99;100.00;52399.19;5030157;28;19945;-62
2023/09/02 01:32:33;;;;;;;;;;;;;;;-144.99;100.00;52362.50;5029130;28;19956;-64
2023/09/02 01:35:04;;;;;;;;;;;;;;;-144.99;100.00;52356.38;5027987;28;20381;-64
2023/09/02 01:37:32;;;;;;;;;;;;;;;-144.99;100.00;52391.03;5026016;28;19940;-63
2023/09/02 01:40:00;;;;;;;;;;;;;;;-144.99;100.00;52350.25;5028848;28;20045;-66
2023/09/02 01:42:26;;;;;;;;;;;;;;;-144.99;100.00;52354.34;5028040;28;20119;-66
2023/09/02 01:44:55;;;;;;;;;;;;;;;-144.99;100.00;52360.44;5038404;28;19955;-65
2023/09/02 01:47:22;;;;;;;;;;;;;;;-144.99;100.00;52411.41;5032717;28;19948;-67
2023/09/02 01:49:48;;;;;;;;;;;;;;;-144.99;100.00;52358.41;5030562;28;19942;-67
2023/09/02 01:52:16;;;;;;;;;;;;;;;-144.99;100.00;52350.25;5034674;28;20017;-66
2023/09/02 01:54:42;;;;;;;;;;;;;;;-144.99;100.00;52382.88;5031015;28;19937;-67
2023/09/02 01:57:09;;;;;;;;;;;;;;;-144.99;100.00;52407.31;5039304;28;19944;-67
2023/09/02 01:59:35;;;;;;;;;;;;;;;-144.99;100.00;52366.56;5025961;28;19987;-68
2023/09/02 02:02:03;;;;;;;;;;;;;;;-144.99;100.00;52386.94;5031277;28;19963;-68
2023/09/02 02:04:34;;;;;;;;;;;;;;;-144.99;100.00;52293.19;5031304;28;20050;-68
2023/09/02 02:07:01;;;;;;;;;;;;;;;-144.99;100.00;52344.16;5030625;28;20004;-67
2023/09/02 02:09:32;;;;;;;;;;;;;;;-144.99;100.00;52362.50;5027224;28;20074;-68
2023/09/02 02:12:00;;;;;;;;;;;;;;;-144.99;100.00;52364.53;5032426;28;20147;-69
2023/09/02 02:14:31;;;;;;;;;;;;;;;-144.99;100.00;52372.69;5034900;28;19937;-68
2023/09/02 02:16:57;;;;;;;;;;;;;;;-144.99;100.00;52368.59;5035658;28;20037;-67
2023/09/02 02:19:25;;;;;;;;;;;;;;;-144.99;100.00;52370.63;5026137;28;20038;-66
2023/09/02 02:21:52;;;;;;;;;;;;;;;-144.99;100.00;52384.91;5034154;28;20479;-66
2023/09/02 02:24:18;;;;;;;;;;;;;;;-144.99;100.00;52366.56;5029624;28;19976;-67
2023/09/02 02:26:45;;;;;;;;;;;;;;;-144.99;100.00;52419.56;5032054;28;19989;-68
2023/09/02 02:29:11;;;;;;;;;;;;;;;-144.99;100.00;52395.09;5032853;28;20290;-67
2023/09/02 02:31:38;;;;;;;;;;;;;;;-144.99;100.00;52352.28;5025369;28;20027;-67
2023/09/02 02:34:04;;;;;;;;;;;;;;;-144.99;100.00;52362.50;5031559;28;19971;-68
2023/09/02 02:36:32;;;;;;;;;;;;;;;-144.99;100.00;52388.97;5026007;28;19973;-68
2023/09/02 02:38:59;;;;;;;;;;;;;;;-144.99;100.00;52374.72;5033877;28;20077;-65
2023/09/02 02:41:25;;;;;;;;;;;;;;;-144.99;100.00;52421.59;5026559;28;19975;-64
2023/09/02 02:43:52;;;;;;;;;;;;;;;-144.99;100.00;52333.94;5034883;28;19965;-63
2023/09/02 02:46:18;;;;;;;;;;;;;;;-144.99;100.00;52386.94;5028112;28;19952;-64
2023/09/02 02:48:44;;;;;;;;;;;;;;;-144.99;100.00;52399.19;5042240;28;20049;-65
2023/09/02 02:51:11;;;;;;;;;;;;;;;-144.99;100.00;52370.63;5023777;28;19946;-64
2023/09/02 02:53:39;;;;;;;;;;;;;;;-144.99;100.00;52358.41;5033173;28;19955;-65
2023/09/02 02:56:05;;;;;;;;;;;;;;;-144.99;100.00;52370.63;5044457;28;19949;-66
2023/09/02 02:58:32;;;;;;;;;;;;;;;-144.99;100.00;52391.03;5034828;28;19995;-64
2023/09/02 03:01:04;;;;;;;;;;;;;;;-144.99;100.00;52374.72;5029363;28;20377;-64
2023/09/02 03:03:30;;;;;;;;;;;;;;;-144.99;100.00;52384.91;5035061;28;20008;-62
2023/09/02 03:05:57;;;;;;;;;;;;;;;-144.99;100.00;52388.97;5035293;28;19954;-65
2023/09/02 03:08:23;;;;;;;;;;;;;;;-144.99;100.00;52386.94;5040856;28;20417;-63
2023/09/02 03:10:57;;;;;;;;;;;;;;;-144.99;100.00;52362.50;5032721;28;19979;-63
2023/09/02 03:13:24;;;;;;;;;;;;;;;-144.99;100.00;52374.72;5031206;28;19979;-66
2023/09/02 03:15:51;;;;;;;;;;;;;;;-144.99;100.00;52378.78;5038229;28;20426;-69
2023/09/02 03:18:17;;;;;;;;;;;;;;;-144.99;100.00;52350.25;5041663;28;19987;-68
2023/09/02 03:20:44;;;;;;;;;;;;;;;-144.99;100.00;52360.44;5032804;28;19948;-67
2023/09/02 03:23:10;;;;;;;;;;;;;;;-144.99;100.00;52395.09;5044231;28;20076;-68
2023/09/02 03:25:37;;;;;;;;;;;;;;;-144.99;100.00;52370.63;5037984;28;19984;-69
2023/09/02 03:28:05;;;;;;;;;;;;;;;-144.99;100.00;52444.03;5037740;28;19950;-70
2023/09/02 03:30:32;;;;;;;;;;;;;;;-144.99;100.00;52403.25;5034954;28;19998;-68
2023/09/02 03:32:59;;;;;;;;;;;;;;;-144.99;100.00;52374.72;5029538;28;19963;-69
2023/09/02 03:35:25;;;;;;;;;;;;;;;-144.99;100.00;52372.69;5036157;28;20032;-70
2023/09/02 03:37:52;;;;;;;;;;;;;;;-144.99;100.00;52395.09;5040632;28;20379;-64
2023/09/02 03:40:18;;;;;;;;;;;;;;;-144.99;100.00;52374.72;5035042;28;19981;-65
2023/09/02 03:42:45;;;;;;;;;;;;;;;-144.99;100.00;52366.56;5037936;28;19994;-66
2023/09/02 03:45:13;;;;;;;;;;;;;;;-144.99;100.00;52393.06;5034383;28;20044;-66
2023/09/02 03:47:40;;;;;;;;;;;;;;;-144.99;100.00;52374.72;5037528;28;19950;-67
2023/09/02 03:50:07;;;;;;;;;;;;;;;-144.99;100.00;52342.09;5034589;28;19987;-68
2023/09/02 03:52:34;;;;;;;;;;;;;;;-144.99;100.00;52415.47;5038767;28;20438;-63
2023/09/02 03:55:00;;;;;;;;;;;;;;;-144.99;100.00;52374.72;5046860;28;19948;-67
2023/09/02 03:57:27;;;;;;;;;;;;;;;-144.99;100.00;52382.88;5044654;28;19937;-66
2023/09/02 03:59:53;;;;;;;;;;;;;;;-144.99;100.00;52386.94;5038552;28;20586;-68
2023/09/02 04:02:21;;;;;;;;;;;;;;;-144.99;100.00;52407.31;5044601;28;20019;-69
2023/09/02 04:04:48;;;;;;;;;;;;;;;-144.99;100.00;52399.19;5032565;28;19951;-67
2023/09/02 04:07:14;;;;;;;;;;;;;;;-144.99;100.00;52338.03;5036005;28;19960;-67
2023/09/02 04:09:41;;;;;;;;;;;;;;;-144.99;100.00;52388.97;5041465;28;20402;-67
2023/09/02 04:12:07;;;;;;;;;;;;;;;-144.99;100.00;52370.63;5041237;28;19997;-66
2023/09/02 04:14:34;;;;;;;;;;;;;;;-144.99;100.00;52419.56;5043942;28;19945;-66
2023/09/02 04:17:01;;;;;;;;;;;;;;;-144.99;100.00;52382.88;5056464;28;20045;-66
2023/09/02 04:19:28;;;;;;;;;;;;;;;-144.99;100.00;52380.84;5041567;28;19946;-67
2023/09/02 04:21:55;;;;;;;;;;;;;;;-144.99;100.00;52421.59;5049015;28;19981;-65
2023/09/02 04:24:21;;;;;;;;;;;;;;;-144.99;100.00;52378.78;5044155;28;20410;-66
2023/09/02 04:26:48;;;;;;;;;;;;;;;-144.99;100.00;52397.13;5051380;28;20321;-66
2023/09/02 04:29:14;;;;;;;;;;;;;;;-144.99;100.00;52354.34;5043679;28;19963;-66
2023/09/02 04:31:41;;;;;;;;;;;;;;;-144.99;100.00;52378.78;5035789;28;19944;-66
2023/09/02 04:34:07;;;;;;;;;;;;;;;-144.99;100.00;52372.69;5030850;28;19952;-66
2023/09/02 04:36:35;;;;;;;;;;;;;;;-144.99;100.00;52386.94;5029894;28;19940;-66
2023/09/02 04:39:06;;;;;;;;;;;;;;;-144.99;100.00;52415.47;5028252;28;20039;-66
2023/09/02 04:41:33;;;;;;;;;;;;;;;-144.99;100.00;52368.59;5030593;28;19990;-66
2023/09/02 04:43:59;;;;;;;;;;;;;;;-144.99;100.00;52374.72;5038428;28;19962;-66
2023/09/02 04:46:26;;;;;;;;;;;;;;;-144.99;100.00;52421.59;5031391;28;19990;-67
2023/09/02 04:48:53;;;;;;;;;;;;;;;-144.99;100.00;52399.19;5032972;28;20435;-67
2023/09/02 04:51:20;;;;;;;;;;;;;;;-144.99;100.00;52380.84;5036415;28;19970;-66
2023/09/02 04:53:48;;;;;;;;;;;;;;;-144.99;100.00;52354.34;5034134;28;19959;-65
2023/09/02 04:56:14;;;;;;;;;;;;;;;-144.99;100.00;52382.88;5030263;28;19939;-65
2023/09/02 04:58:41;;;;;;;;;;;;;;;-144.99;100.00;52321.72;5034550;28;20404;-64
2023/09/02 05:01:08;;;;;;;;;;;;;;;-144.99;100.00;52407.31;5031967;28;19971;-64
2023/09/02 05:03:34;;;;;;;;;;;;;;;-144.99;100.00;52391.03;5032858;28;19997;-64
2023/09/02 05:06:02;;;;;;;;;;;;;;;-144.99;100.00;52391.03;5030190;28;19982;-65
2023/09/02 05:08:34;;;;;;;;;;;;;;;-144.99;100.00;52386.94;5029923;28;19938;-66
2023/09/02 05:11:03;;;;;;;;;;;;;;;-144.99;100.00;52358.41;5032186;28;20040;-67
2023/09/02 05:13:29;;;;;;;;;;;;;;;-144.99;100.00;52415.47;5031107;28;19958;-68
2023/09/02 05:15:56;;;;;;;;;;;;;;;-144.99;100.00;52386.94;5031604;28;19943;-67
2023/09/02 05:18:22;;;;;;;;;;;;;;;-144.99;100.00;52372.69;5029085;28;20001;-68
2023/09/02 05:20:49;;;;;;;;;;;;;;;-144.99;100.00;52364.53;5034397;28;19998;-67
2023/09/02 05:23:15;;;;;;;;;;;;;;;-144.99;100.00;52384.91;5036871;28;19955;-67
2023/09/02 05:25:42;;;;;;;;;;;;;;;-144.99;100.00;52342.09;5033752;28;19937;-67
2023/09/02 05:28:10;;;;;;;;;;;;;;;-144.99;100.00;52364.53;5027956;28;19951;-67
2023/09/02 05:30:36;;;;;;;;;;;;;;;-144.99;100.00;52329.88;5033961;28;19965;-65
2023/09/02 05:33:03;;;;;;;;;;;;;;;-144.99;100.00;52333.94;5034206;28;19994;-66
2023/09/02 05:35:30;;;;;;;;;;;;;;;-144.99;100.00;52378.78;5039463;28;20342;-68
2023/09/02 05:37:57;;;;;;;;;;;;;;;-144.99;100.00;52338.03;5031166;28;19945;-69
2023/09/02 05:40:24;;;;;;;;;;;;;;;-144.99;100.00;52338.03;5026603;28;20325;-64
2023/09/02 05:42:50;;;;;;;;;;;;;;;-144.99;100.00;52333.94;5035002;28;20792;-67
2023/09/02 05:45:18;;;;;;;;;;;;;;;-144.99;100.00;52360.44;5029633;28;20569;-68
2023/09/02 05:47:44;;;;;;;;;;;;;;;-144.99;100.00;52350.25;5047624;22;19948;-71
2023/09/02 05:50:11;;;;;;;;;;;;;;;-144.99;100.00;52346.19;5017760;28;20224;-71
2023/09/02 05:52:37;;;;;;;;;;;;;;;-144.99;100.00;52370.63;5016947;28;20010;-72
2023/09/02 05:55:04;;;;;;;;;;;;;;;-144.99;100.00;52303.38;5008686;28;19943;-67
2023/09/02 05:57:32;;;;;;;;;;;;;;;-144.99;100.00;52317.66;5009592;28;19946;-68
2023/09/02 05:59:58;;;;;;;;;;;;;;;-144.99;100.00;52344.16;5011241;28;19961;-69
2023/09/02 06:02:27;;;;;;;;;;;;;;;-144.99;100.00;52317.66;5009190;28;20006;-70
2023/09/02 06:04:54;;;;;;;;;;;;;;;-144.99;100.00;52327.84;5006037;28;19936;-69
2023/09/02 06:07:20;;;;;;;;;;;;;;;-144.99;100.00;52333.94;5010272;28;19994;-64
2023/09/02 06:09:47;;;;;;;;;;;;;;;-144.99;100.00;52297.25;5007633;28;20370;-65
2023/09/02 06:12:13;;;;;;;;;;;;;;;-144.99;100.00;52276.88;5004239;28;20016;-65
2023/09/02 06:14:40;;;;;;;;;;;;;;;-144.99;100.00;52317.66;5003786;28;19929;-64
2023/09/02 06:17:06;;;;;;;;;;;;;;;-144.99;100.00;52325.81;5007368;28;19940;-65
2023/09/02 06:19:35;;;;;;;;;;;;;;;-144.99;100.00;52325.81;5008958;28;19962;-65
2023/09/02 06:22:01;;;;;;;;;;;;;;;-144.99;100.00;52295.22;5006665;28;20294;-68
2023/09/02 06:24:28;;;;;;;;;;;;;;;-144.99;100.00;52309.50;5006491;28;19968;-68
2023/09/02 06:26:54;;;;;;;;;;;;;;;-144.99;100.00;52305.41;5008214;28;20122;-67
2023/09/02 06:29:20;;;;;;;;;;;;;;;-144.99;100.00;52317.66;5011136;28;19933;-67
2023/09/02 06:31:47;;;;;;;;;;;;;;;-144.99;100.00;52297.25;5010649;28;19974;-67
2023/09/02 06:34:13;;;;;;;;;;;;;;;-144.99;100.00;52280.97;5008715;28;20394;-68
2023/09/02 06:36:44;;;;;;;;;;;;;;;-144.99;100.00;52285.03;5009638;28;19947;-67
2023/09/02 06:39:10;;;;;;;;;;;;;;;-144.99;100.00;52293.19;5010759;28;19980;-68
2023/09/02 06:41:37;;;;;;;;;;;;;;;-144.99;100.00;52317.66;5010509;28;19963;-68
2023/09/02 06:44:03;;;;;;;;;;;;;;;-144.99;100.00;52293.19;5008830;28;20188;-69
2023/09/02 06:46:31;;;;;;;;;;;;;;;-144.99;100.00;52264.66;5007750;28;19983;-67
2023/09/02 06:48:59;;;;;;;;;;;;;;;-144.99;100.00;52227.97;5010378;28;20049;-65
2023/09/02 06:51:25;;;;;;;;;;;;;;;-144.99;100.00;52260.56;5009944;28;19929;-66
2023/09/02 06:53:53;;;;;;;;;;;;;;;-144.99;100.00;52268.72;5007586;28;19962;-64
2023/09/02 06:56:19;;;;;;;;;;;;;;;-144.99;100.00;52260.56;5008068;28;20294;-65
2023/09/02 06:58:46;;;;;;;;;;;;;;;-144.99;100.00;52256.50;5010618;28;19974;-64
2023/09/02 07:01:15;;;;;;;;;;;;;;;-144.99;100.00;52236.13;5010393;28;20425;-63
2023/09/02 07:03:42;;;;;;;;;;;;;;;-144.99;99.77;52260.56;5009779;28;20334;-63
2023/09/02 07:06:13;;;;;;;;;;;;;;;-144.99;98.58;52221.84;5008527;28;20040;-64
2023/09/02 07:08:40;;;;;;;;;;;;;;;-144.99;97.36;52301.34;5010711;28;19965;-65
2023/09/02 07:11:09;;;;;;;;;;;;;;;-144.99;96.83;52254.47;5013421;28;20039;-63
2023/09/02 07:13:36;;;;;;;;;;;;;;;-144.99;96.28;52252.44;5006674;28;20054;-64
2023/09/02 07:16:03;;;;;;;;;;;;;;;-144.99;95.60;52240.19;5007777;28;20008;-66
2023/09/02 07:18:29;;;;;;;;;;;;;;;-144.99;93.98;52234.09;5009265;28;19962;-69
2023/09/02 07:20:59;;;;;;;;;;;;;;;-144.99;93.45;52276.88;5006940;28;19978;-67
2023/09/02 07:23:26;;;;;;;;;;;;;;;-144.99;92.67;52260.56;5008642;28;19987;-67
2023/09/02 07:25:53;;;;;;;;;;;;;;;-144.99;92.04;52268.72;5011692;28;20420;-68
2023/09/02 07:28:20;;;;;;;;;;;;;;;-144.99;92.10;52266.69;5014704;28;19925;-67
2023/09/02 07:30:47;;;;;;;;;;;;;;;-144.99;92.13;52244.28;5012630;28;20433;-69
2023/09/02 07:33:13;;;;;;;;;;;;;;;-144.99;91.26;52252.44;5009550;28;19956;-70
2023/09/02 07:35:40;;;;;;;;;;;;;;;-144.99;90.15;52252.44;5008950;28;19937;-69
2023/09/02 07:38:07;;;;;;;;;;;;;;;-144.99;89.48;52264.66;5007761;28;20486;-69
2023/09/02 07:40:33;;;;;;;;;;;;;;;-144.99;88.98;52268.72;5007423;28;20060;-69
2023/09/02 07:43:00;;;;;;;;;;;;;;;-144.99;88.94;52268.72;5008537;28;19936;-69
2023/09/02 07:45:28;;;;;;;;;;;;;;;-144.99;88.47;52219.81;5006487;28;20217;-68
2023/09/02 07:47:55;;;;;;;;;;;;;;;-144.99;87.53;52219.81;5009035;28;20017;-67
2023/09/02 07:50:21;;;;;;;;;;;;;;;-144.99;87.91;52283.00;5007568;28;19952;-68
2023/09/02 07:52:48;;;;;;;;;;;;;;;-144.99;87.86;52236.13;5004433;28;19963;-70
2023/09/02 07:55:15;;;;;;;;;;;;;;;-144.99;87.49;52268.72;5006303;28;19945;-67
2023/09/02 07:57:42;;;;;;;;;;;;;;;-144.99;87.21;52260.56;5004151;28;19939;-67
2023/09/02 08:00:09;;;;;;;;;;;;;;;-144.99;86.75;52238.16;5007802;28;19998;-67
2023/09/02 08:02:36;;;;;;;;;;;;;;;-144.99;86.04;52223.88;5008750;28;20115;-67
2023/09/02 08:05:03;;;;;;;;;;;;;;;-144.99;85.41;52215.75;5007808;28;20245;-67
2023/09/02 08:07:31;;;;;;;;;;;;;;;-144.99;84.73;52256.50;5005339;28;20338;-67
2023/09/02 08:09:58;;;;;;;;;;;;;;;-144.99;84.85;52211.66;4999576;28;20048;-67
2023/09/02 08:12:24;;;;;;;;;;;;;;;-144.99;84.73;52256.50;5006447;28;20363;-67
2023/09/02 08:14:51;;;;;;;;;;;;;;;-144.99;83.83;52219.81;5000480;28;20043;-66
2023/09/02 08:17:19;;;;;;;;;;;;;;;-144.99;82.93;52203.50;5003536;28;20457;-68
2023/09/02 08:19:47;;;;;;;;;;;;;;;-144.99;82.62;52223.88;4999934;28;20014;-67
2023/09/02 08:22:13;;;;;;;;;;;;;;;-144.99;81.77;52232.03;4308867;28;10000633;-67
2023/09/02 08:24:40;;;;;;;;;;;;;;;-144.99;82.01;52236.13;5003087;28;19937;-66
2023/09/02 08:27:06;;;;;;;;;;;;;;;-144.99;81.80;52230.00;5003425;28;20026;-68
2023/09/02 08:29:33;;;;;;;;;;;;;;;-144.99;81.38;52248.34;5002976;28;20200;-68
2023/09/02 08:32:00;;;;;;;;;;;;;;;-144.99;81.26;52256.50;5001074;28;19981;-67
2023/09/02 08:34:27;;;;;;;;;;;;;;;-144.99;81.67;52195.34;4997771;28;19930;-67
2023/09/02 08:36:54;;;;;;;;;;;;;;;-144.99;82.19;52262.63;5001029;28;19965;-67
2023/09/02 08:39:21;;;;;;;;;;;;;;;-144.99;81.98;52236.13;4997420;28;20103;-67
2023/09/02 08:41:49;;;;;;;;;;;;;;;-144.99;81.07;52248.34;5000449;28;20001;-67
2023/09/02 08:44:16;;;;;;;;;;;;;;;-144.99;79.48;52179.06;5006087;28;19994;-61
2023/09/02 08:46:45;;;;;;;;;;;;;;;-144.99;80.20;52227.97;5005483;28;19949;-61
2023/09/02 08:49:12;;;;;;;;;;;;;;;-144.99;79.42;52195.34;5004419;28;20210;-62
2023/09/02 08:51:39;;;;;;;;;;;;;;;-144.99;77.33;52199.44;5001350;28;20397;-63
2023/09/02 08:54:08;;;;;;;;;;;;;;;-144.99;77.17;52203.50;5002420;28;20044;-61
2023/09/02 08:56:34;;;;;;;;;;;;;;;-144.99;76.00;52191.28;5003737;28;20116;-62
2023/09/02 08:59:01;;;;;;;;;;;;;;;-144.99;74.77;52227.97;5008036;28;20041;-63
2023/09/02 09:01:30;;;;;;;;;;;;;;;-144.99;74.89;52170.91;4998979;28;20044;-62
2023/09/02 09:03:57;;;;;;;;;;;;;;;-144.99;74.92;52162.75;5000538;28;19959;-62
2023/09/02 09:06:25;;;;;;;;;;;;;;;-144.99;74.65;52211.66;5007939;28;19941;-62
2023/09/02 09:08:52;;;;;;;;;;;;;;;-144.99;73.94;52187.19;5003029;28;20028;-62
2023/09/02 09:11:22;;;;;;;;;;;;;;;-144.99;72.62;52170.91;5002238;28;20407;-68
2023/09/02 09:13:49;;;;;;;;;;;;;;;-144.99;72.13;52174.97;5000667;28;19964;-71
2023/09/02 09:16:17;;;;;;;;;;;;;;;-144.99;71.47;52199.44;5001967;28;20023;-70
2023/09/02 09:18:44;;;;;;;;;;;;;;;-144.99;71.65;52183.13;5001074;28;20063;-68
2023/09/02 09:21:10;;;;;;;;;;;;;;;-144.99;72.15;52199.44;5001585;28;20521;-68
2023/09/02 09:23:37;;;;;;;;;;;;;;;-144.99;72.84;52236.13;5002850;28;20364;-69
2023/09/02 09:26:04;;;;;;;;;;;;;;;-144.99;73.46;52236.13;5004472;28;20054;-69
2023/09/02 09:28:50;;;;;;;;;;;;;;;-144.99;74.66;52203.50;5001968;28;20445;-69
2023/09/02 09:31:17;;;;;;;;;;;;;;;-144.99;73.91;52174.97;4999190;28;19936;-69
2023/09/02 09:33:49;;;;;;;;;;;;;;;-144.99;72.83;52158.66;4998705;28;20023;-69
2023/09/02 09:36:17;;;;;;;;;;;;;;;-144.99;71.01;52191.28;5000521;28;19988;-69
2023/09/02 09:38:43;;;;;;;;;;;;;;;-144.99;69.87;52174.97;5000237;28;20278;-69
2023/09/02 09:41:10;;;;;;;;;;;;;;;-144.99;69.60;52195.34;4998970;28;20468;-69
2023/09/02 09:43:38;;;;;;;;;;;;;;;-144.99;70.01;52215.75;5002516;28;20046;-69
2023/09/02 09:46:04;;;;;;;;;;;;;;;-144.99;70.89;52211.66;5001670;28;20204;-70
2023/09/02 09:48:31;;;;;;;;;;;;;;;-144.99;71.74;52215.75;4994221;28;20014;-68
2023/09/02 09:50:57;;;;;;;;;;;;;;;-144.99;72.22;52207.59;4992246;28;20009;-68
2023/09/02 09:53:26;;;;;;;;;;;;;;;-144.99;72.26;52183.13;4990722;28;20003;-68
2023/09/02 09:55:52;;;;;;;;;;;;;;;-144.99;72.13;52179.06;4992534;28;19991;-70
2023/09/02 09:58:22;;;;;;;;;;;;;;;-144.99;71.11;52170.91;5003135;28;19996;-69
2023/09/02 10:00:52;;;;;;;;;;;;;;;-144.99;69.39;52166.81;5002921;28;20033;-64
2023/09/02 10:03:29;;;;;;;;;;;;;;;-144.99;68.94;52150.53;5006494;28;20042;-64
2023/09/02 10:05:58;;;;;;;;;;;;;;;-144.99;67.09;52126.06;5004959;28;20193;-64
2023/09/02 10:08:25;;;;;;;;;;;;;;;-144.99;65.74;52093.44;5000432;28;20035;-64
2023/09/02 10:10:51;;;;;;;;;;;;;;;-144.99;65.31;52152.56;4995306;28;20001;-66
2023/09/02 10:13:18;;;;;;;;;;;;;;;-144.99;66.00;52130.13;5008588;28;20036;-66
2023/09/02 10:15:45;;;;;;;;;;;;;;;-144.99;66.07;52146.44;5005711;28;20033;-66
2023/09/02 10:18:13;;;;;;;;;;;;;;;-144.99;65.68;52158.66;5010481;28;19973;-69
2023/09/02 10:20:40;;;;;;;;;;;;;;;-144.99;66.01;52199.44;5006511;28;20380;-69
2023/09/02 10:23:07;;;;;;;;;;;;;;;-144.99;66.59;52207.59;4999659;28;20523;-70
2023/09/02 10:25:38;;;;;;;;;;;;;;;-144.99;67.75;52227.97;5000736;28;20005;-69
2023/09/02 10:28:06;;;;;;;;;;;;;;;-144.99;68.90;52195.34;5001675;28;19989;-69
2023/09/02 10:30:36;;;;;;;;;;;;;;;-144.99;69.16;52158.66;5003273;28;20064;-71
2023/09/02 10:33:11;;;;;;;;;;;;;;;-144.99;68.05;52113.84;5009655;28;20572;-70
2023/09/02 10:35:42;;;;;;;;;;;;;;;-144.99;66.73;52069.00;5007206;28;20368;-69
2023/09/02 10:38:10;;;;;;;;;;;;;;;-144.99;65.46;52089.38;5006028;28;19968;-71
2023/09/02 10:40:38;;;;;;;;;;;;;;;-144.99;62.61;52126.06;5011118;28;20050;-70
2023/09/02 10:43:05;;;;;;;;;;;;;;;-144.99;62.17;52113.84;5011269;28;19959;-69
2023/09/02 10:45:32;;;;;;;;;;;;;;;-144.99;62.37;52142.38;5011167;28;20044;-69
2023/09/02 10:47:59;;;;;;;;;;;;;;;-144.99;62.79;52048.63;5003594;28;19983;-68
2023/09/02 10:50:25;;;;;;;;;;;;;;;-144.99;63.17;52172.94;4996539;28;19993;-67
2023/09/02 10:52:54;;;;;;;;;;;;;;;-144.99;63.87;52179.06;4997530;28;20063;-69
2023/09/02 10:55:21;;;;;;;;;;;;;;;-144.99;64.43;52234.09;4997631;28;20026;-70
2023/09/02 10:57:48;;;;;;;;;;;;;;;-144.99;65.60;52197.41;4996004;28;19950;-68
2023/09/02 11:00:15;;;;;;;;;;;;;;;-144.99;66.01;52223.88;4998084;28;20082;-69
2023/09/02 11:02:42;;;;;;;;;;;;;;;-144.99;65.63;52073.06;4996996;28;19989;-69
2023/09/02 11:05:09;;;;;;;;;;;;;;;-144.99;64.83;52016.00;4996917;28;19996;-69
2023/09/02 11:07:35;;;;;;;;;;;;;;;-144.99;63.00;51995.63;5009099;28;19984;-70
2023/09/02 11:10:04;;;;;;;;;;;;;;;-144.99;61.93;51995.63;5010884;28;20047;-69
2023/09/02 11:12:30;;;;;;;;;;;;;;;-144.99;61.47;51975.25;5007104;28;19998;-69
2023/09/02 11:15:16;;;;;;;;;;;;;;;-144.99;60.61;51975.25;5006641;28;19943;-69
2023/09/02 11:17:43;;;;;;;;;;;;;;;-144.99;59.20;51967.09;5003216;28;20395;-70
2023/09/02 11:20:10;;;;;;;;;;;;;;;-144.99;59.40;51975.25;5004564;28;20054;-69
2023/09/02 11:22:53;;;;;;;;;;;;;;;-144.99;59.78;51905.97;5003923;28;20038;-69
2023/09/02 11:25:31;;;;;;;;;;;;;;;-144.99;59.71;51938.56;5004401;28;19946;-68
2023/09/02 11:27:58;;;;;;;;;;;;;;;-144.99;58.67;51918.19;5002942;28;20037;-69
2023/09/02 11:30:25;;;;;;;;;;;;;;;-144.99;57.96;51944.69;4310424;28;10000741;-69
2023/09/02 11:32:52;;;;;;;;;;;;;;;-144.99;57.12;51910.03;5001371;28;19989;-70
2023/09/02 11:35:23;;;;;;;;;;;;;;;-144.99;56.40;51932.44;4999858;28;20041;-69
2023/09/02 11:37:50;;;;;;;;;;;;;;;-144.99;55.56;51936.53;4994114;28;19961;-68
2023/09/02 11:40:17;;;;;;;;;;;;;;;-144.99;55.46;51938.56;5000002;28;20029;-68
2023/09/02 11:42:49;;;;;;;;;;;;;;;-144.99;56.23;51963.03;4999953;28;19965;-69
2023/09/02 11:45:16;;;;;;;;;;;;;;;-144.99;55.93;51926.34;4999920;28;20042;-68
2023/09/02 11:47:42;;;;;;;;;;;;;;;-144.99;55.64;51958.94;5001398;28;19985;-69
2023/09/02 11:50:11;;;;;;;;;;;;;;;-144.99;54.83;52093.44;5002896;28;20036;-68
2023/09/02 11:52:38;;;;;;;;;;;;;;;-144.99;55.72;51914.09;5003371;28;20290;-68
2023/09/02 11:55:08;;;;;;;;;;;;;;;-144.99;56.05;51938.56;5002529;28;19995;-68
2023/09/02 11:57:34;;;;;;;;;;;;;;;-144.99;56.04;51987.47;5001539;28;20560;-68
2023/09/02 12:00:02;;;;;;;;;;;;;;;-144.99;55.82;52007.84;5002088;28;19946;-69
2023/09/02 12:02:28;;;;;;;;;;;;;;;-144.99;56.32;51975.25;5001339;28;20432;-68
2023/09/02 12:04:55;;;;;;;;;;;;;;;-144.99;56.05;51938.56;4999787;28;20066;-68
2023/09/02 12:07:22;;;;;;;;;;;;;;;-144.99;55.57;51946.72;5002399;28;19971;-69
2023/09/02 12:09:48;;;;;;;;;;;;;;;-144.99;55.81;52138.28;5000690;28;20028;-69
2023/09/02 12:12:16;;;;;;;;;;;;;;;-144.99;57.06;52174.97;5002169;28;20005;-69
2023/09/02 12:14:42;;;;;;;;;;;;;;;-144.99;58.42;52203.50;5002002;28;20504;-69
2023/09/02 12:17:10;;;;;;;;;;;;;;;-144.99;58.77;52203.50;5002686;28;20057;-69
2023/09/02 12:19:37;;;;;;;;;;;;;;;-144.99;59.03;52036.38;4999168;28;19978;-69
2023/09/02 12:22:03;;;;;;;;;;;;;;;-144.99;58.20;52020.09;4996914;28;20078;-69